Terminal Aerodrome Forecast
Issued by NWS Jackson, MS

Home | Current Version | Previous Version | Text Only | Print | Product List | Glossary On
Versions: 1 2 3 4 5 6 7 8 9 10 11 12 13 14 15
200
FTUS44 KJAN 181720
TAFMEI
TAF
KMEI 181720Z 1818/1918 10005KT P6SM OVC006
     FM182100 14006KT P6SM OVC015
     FM190400 17004KT P6SM BKN025
     FM190800 18003KT 4SM BR OVC007
     FM191500 17013G19KT P6SM OVC015=

USA.gov is the U.S. government's official web portal to all federal, state and local government web resources and services.